createdAt,value
2019-04-21T00:01:14.090Z,8.00
2019-04-21T00:03:53.670Z,7.83
2019-04-21T00:06:51.095Z,8.03
2019-04-21T00:09:31.148Z,8.53
2019-04-21T00:12:01.459Z,8.20
2019-04-21T00:14:30.342Z,8.60
2019-04-21T00:17:07.283Z,8.58
2019-04-21T00:19:41.276Z,9.07
2019-04-21T00:22:33.161Z,7.90
2019-04-21T00:25:11.675Z,8.30
2019-04-21T00:27:46.539Z,9.03
2019-04-21T00:30:36.731Z,9.20
2019-04-21T00:32:58.800Z,8.83
2019-04-21T00:38:25.164Z,9.18
2019-04-21T00:41:00.003Z,8.80
2019-04-21T00:46:02.245Z,9.30
2019-04-21T00:48:51.193Z,9.10
2019-04-21T00:54:12.858Z,9.13
2019-04-21T00:56:49.632Z,8.93
2019-04-21T00:59:19.324Z,9.67
2019-04-21T01:01:53.890Z,10.35
2019-04-21T01:04:37.247Z,8.90
2019-04-21T01:07:13.245Z,9.53
2019-04-21T01:09:45.291Z,9.38
2019-04-21T01:12:31.906Z,9.55
2019-04-21T01:15:04.830Z,9.78
2019-04-21T01:20:06.720Z,10.03
2019-04-21T01:22:28.139Z,9.28
2019-04-21T01:25:19.295Z,9.90
2019-04-21T01:27:58.994Z,9.60
2019-04-21T01:30:40.988Z,9.47
2019-04-21T01:33:26.308Z,10.33
2019-04-21T01:35:56.183Z,9.37
2019-04-21T01:41:12.984Z,9.30
2019-04-21T01:46:22.517Z,9.53
2019-04-21T01:51:45.432Z,9.65
2019-04-21T01:54:33.197Z,9.73
2019-04-21T01:57:11.374Z,9.85
2019-04-21T01:59:40.283Z,9.65
2019-04-21T02:02:22.974Z,10.43
2019-04-21T02:05:07.007Z,9.63
2019-04-21T02:07:40.304Z,9.93
2019-04-21T02:10:22.531Z,9.43
2019-04-21T02:12:50.966Z,9.57
2019-04-21T02:15:34.874Z,9.60
2019-04-21T02:18:02.440Z,8.83
2019-04-21T02:20:34.553Z,9.50
2019-04-21T02:23:29.838Z,9.33
2019-04-21T02:26:21.832Z,9.05
2019-04-21T02:28:55.864Z,8.40
2019-04-21T02:34:37.386Z,9.30
2019-04-21T02:37:05.296Z,8.70
2019-04-21T02:42:01.689Z,9.23
2019-04-21T02:47:29.174Z,8.77
2019-04-21T02:50:24.366Z,8.10
2019-04-21T02:52:50.079Z,8.60
2019-04-21T02:55:07.939Z,8.57
2019-04-21T03:00:36.720Z,8.23
2019-04-21T03:03:22.892Z,7.80
2019-04-21T03:11:45.537Z,7.80
2019-04-21T03:16:34.768Z,7.97
2019-04-21T03:19:17.548Z,8.60
2019-04-21T03:21:57.573Z,9.08
2019-04-21T03:24:45.095Z,9.53
2019-04-21T03:27:37.724Z,8.78
2019-04-21T03:29:50.609Z,9.28
2019-04-21T03:32:50.626Z,9.13
2019-04-21T03:35:32.783Z,7.93
2019-04-21T03:40:14.645Z,7.53
2019-04-21T03:42:51.353Z,8.03
2019-04-21T03:45:31.322Z,7.62
2019-04-21T03:48:07.951Z,7.63
2019-04-21T03:50:41.167Z,7.97
2019-04-21T03:53:18.573Z,7.37
2019-04-21T03:55:53.146Z,6.90
2019-04-21T03:59:25.048Z,8.07
2019-04-21T04:01:40.643Z,7.23
2019-04-21T04:04:31.903Z,6.73
2019-04-21T04:07:28.201Z,7.33
2019-04-21T04:12:26.392Z,7.27
2019-04-21T04:15:24.274Z,7.50
2019-04-21T04:17:44.226Z,7.13
2019-04-21T04:23:11.672Z,8.30
2019-04-21T04:25:33.541Z,7.63
2019-04-21T04:30:52.076Z,8.07
2019-04-21T04:36:15.463Z,6.60
2019-04-21T04:41:33.424Z,6.83
2019-04-21T04:44:13.673Z,6.80
2019-04-21T04:46:47.640Z,6.63
2019-04-21T04:49:27.880Z,6.97
2019-04-21T04:54:47.233Z,6.67
2019-04-21T04:57:16.098Z,7.58
2019-04-21T05:02:30.481Z,6.87
2019-04-21T05:05:09.191Z,7.80
2019-04-21T05:07:45.588Z,6.67
2019-04-21T05:12:48.088Z,6.50
2019-04-21T05:15:19.258Z,6.73
2019-04-21T05:17:57.736Z,6.67
2019-04-21T05:20:31.114Z,7.10
2019-04-21T05:23:14.436Z,6.70
2019-04-21T05:25:41.539Z,7.10
2019-04-21T05:31:04.797Z,8.37
2019-04-21T05:33:44.825Z,6.70
2019-04-21T05:36:37.863Z,7.10
2019-04-21T05:39:36.105Z,7.03
2019-04-21T05:42:05.006Z,7.53
2019-04-21T05:45:01.838Z,6.80
2019-04-21T05:48:05.472Z,7.37
2019-04-21T05:50:28.001Z,6.70
2019-04-21T05:53:08.479Z,6.83
2019-04-21T05:55:56.703Z,6.73
2019-04-21T05:58:28.461Z,6.40
2019-04-21T06:09:00.908Z,7.13
2019-04-21T06:11:35.987Z,7.07
2019-04-21T06:14:14.408Z,6.67
2019-04-21T06:16:57.440Z,7.83
2019-04-21T06:22:06.454Z,8.98
2019-04-21T06:24:54.713Z,7.47
2019-04-21T06:27:22.942Z,8.67
2019-04-21T06:29:57.534Z,7.87
2019-04-21T06:38:03.664Z,8.50
2019-04-21T06:40:46.062Z,8.65
2019-04-21T06:43:27.008Z,8.17
2019-04-21T06:45:52.689Z,8.13
2019-04-21T06:48:35.567Z,7.45
2019-04-21T06:51:13.756Z,7.47
2019-04-21T06:53:57.152Z,7.50
2019-04-21T06:56:30.717Z,7.03
2019-04-21T06:59:01.442Z,7.40
2019-04-21T07:01:42.191Z,7.40
2019-04-21T07:09:31.187Z,7.60
2019-04-21T07:12:06.124Z,7.30
2019-04-21T07:14:53.261Z,6.87
2019-04-21T07:17:27.908Z,7.23
2019-04-21T07:20:07.169Z,7.00
2019-04-21T07:22:44.624Z,6.47
2019-04-21T07:25:16.666Z,5.50
2019-04-21T07:27:56.678Z,5.53
2019-04-21T07:30:37.739Z,5.20
2019-04-21T07:33:22.119Z,4.97
2019-04-21T07:38:27.549Z,4.87
2019-04-21T07:41:02.601Z,5.03
2019-04-21T07:43:44.053Z,4.97
2019-04-21T07:46:17.240Z,5.93
2019-04-21T07:49:01.796Z,5.60
2019-04-21T07:52:05.647Z,5.10
2019-04-21T07:54:37.274Z,5.10
2019-04-21T07:57:05.348Z,5.83
2019-04-21T08:00:10.183Z,5.10
2019-04-21T08:02:22.174Z,29.63
2019-04-21T08:05:07.550Z,8.13
2019-04-21T08:07:50.166Z,5.78
2019-04-21T08:10:15.560Z,5.77
2019-04-21T08:12:49.400Z,5.97
2019-04-21T08:15:44.250Z,6.67
2019-04-21T08:18:07.512Z,13.75
2019-04-21T08:23:18.646Z,7.53
2019-04-21T08:26:12.144Z,7.72
2019-04-21T08:31:13.990Z,6.43
2019-04-21T08:33:55.386Z,6.10
2019-04-21T08:36:28.076Z,8.50
2019-04-21T08:41:31.570Z,6.30
2019-04-21T08:44:10.684Z,6.37
2019-04-21T08:46:52.860Z,6.50
2019-04-21T08:49:29.640Z,5.87
2019-04-21T08:52:34.434Z,6.20
2019-04-21T08:54:47.149Z,6.03
2019-04-21T08:57:50.685Z,6.73
2019-04-21T09:00:41.409Z,6.97
2019-04-21T09:03:44.829Z,6.57
2019-04-21T09:06:40.358Z,6.30
2019-04-21T09:09:04.671Z,6.13
2019-04-21T09:12:12.357Z,6.13
2019-04-21T10:42:56.264Z,4.90
2019-04-21T10:45:32.816Z,4.93
2019-04-21T10:48:07.975Z,5.07
2019-04-21T10:50:43.102Z,5.55
2019-04-21T10:53:21.291Z,4.00
2019-04-21T10:56:09.683Z,4.37
2019-04-21T10:58:44.841Z,4.30
2019-04-21T11:01:27.337Z,4.80
2019-04-21T11:04:21.154Z,4.00
2019-04-21T11:06:50.800Z,4.43
2019-04-21T11:12:04.080Z,4.10
2019-04-21T11:14:41.092Z,4.30
2019-04-21T11:17:16.452Z,4.07
2019-04-21T11:19:53.297Z,4.30
2019-04-21T11:56:50.667Z,4.00
2019-04-21T11:59:25.856Z,4.22
2019-04-21T12:02:01.464Z,4.03
2019-04-21T12:09:51.221Z,3.90
2019-04-21T12:12:27.507Z,3.77
2019-04-21T12:15:02.298Z,3.90
2019-04-21T12:17:37.997Z,3.93
2019-04-21T12:20:14.818Z,3.63
2019-04-21T12:22:49.483Z,3.70
2019-04-21T12:25:27.239Z,4.70
2019-04-21T12:29:37.899Z,4.35
2019-04-21T12:32:30.762Z,4.40
2019-04-21T12:35:06.120Z,3.87
2019-04-21T12:37:42.666Z,4.17
2019-04-21T12:43:00.955Z,4.10
2019-04-21T12:45:36.036Z,4.17
2019-04-21T12:48:10.899Z,3.87
2019-04-21T12:50:45.792Z,4.50
2019-04-21T12:53:21.437Z,3.97
2019-04-21T12:55:55.948Z,4.43
2019-04-21T12:58:31.173Z,4.13
2019-04-21T13:01:07.084Z,3.97
2019-04-21T13:03:42.252Z,4.00
2019-04-21T13:06:19.208Z,4.17
2019-04-21T13:09:01.435Z,3.70
2019-04-21T13:14:06.482Z,4.23
2019-04-21T13:16:43.501Z,4.07
2019-04-21T13:19:29.389Z,4.17
2019-04-21T13:22:07.878Z,4.40
2019-04-21T13:24:42.295Z,4.03
2019-04-21T13:28:18.758Z,3.92
2019-04-21T13:30:54.038Z,3.75
2019-04-21T13:33:29.310Z,3.63
2019-04-21T13:36:05.004Z,3.90
2019-04-21T13:39:27.577Z,3.40
2019-04-21T13:41:48.339Z,3.55
2019-04-21T13:44:19.629Z,3.33
2019-04-21T13:46:54.800Z,4.00
2019-04-21T13:49:37.462Z,3.40
2019-04-21T13:52:15.648Z,3.40
2019-04-21T13:57:24.473Z,3.42
2019-04-21T14:00:05.504Z,3.70
2019-04-21T14:07:50.462Z,3.40
2019-04-21T14:10:31.506Z,3.00
2019-04-21T14:16:15.929Z,3.22
2019-04-21T14:21:39.147Z,3.40
2019-04-21T14:24:57.926Z,3.12
2019-04-21T14:30:40.743Z,3.10
2019-04-21T14:36:02.901Z,3.40
2019-04-21T14:38:38.954Z,3.58
2019-04-21T14:41:16.283Z,3.47
2019-04-21T14:43:51.383Z,3.40
2019-04-21T14:46:49.178Z,2.87
2019-04-21T14:49:57.454Z,3.40
2019-04-21T14:52:37.097Z,3.37
2019-04-21T14:55:22.868Z,3.13
2019-04-21T14:57:59.072Z,2.90
2019-04-21T15:00:52.923Z,2.97
2019-04-21T15:03:29.815Z,2.97
2019-04-21T15:06:05.583Z,3.00
2019-04-21T15:11:20.067Z,3.30
2019-04-21T15:13:55.911Z,3.33
2019-04-21T15:16:31.280Z,3.22
2019-04-21T15:19:08.645Z,3.47
2019-04-21T15:21:42.515Z,3.15
2019-04-21T15:26:52.983Z,2.80
2019-04-21T15:29:28.820Z,2.63
2019-04-21T15:32:04.578Z,3.35
2019-04-21T15:34:42.439Z,2.70
2019-04-21T15:37:17.883Z,3.42
2019-04-21T15:39:56.463Z,2.90
2019-04-21T15:42:48.749Z,2.90
2019-04-21T15:45:24.381Z,3.00
2019-04-21T15:48:00.136Z,2.87
2019-04-21T15:50:35.762Z,2.65
2019-04-21T15:56:08.835Z,14.70
2019-04-21T15:59:04.324Z,2.77
2019-04-21T16:01:48.476Z,2.40
2019-04-21T16:04:23.061Z,2.50
2019-04-21T16:06:57.716Z,2.67
2019-04-21T16:09:35.848Z,2.60
2019-04-21T16:12:09.684Z,2.73
2019-04-21T16:17:21.268Z,3.40
2019-04-21T16:19:56.288Z,3.05
2019-04-21T16:22:32.634Z,2.83
2019-04-21T16:27:41.497Z,2.50
2019-04-21T16:30:19.572Z,2.37
2019-04-21T16:32:54.494Z,2.73
2019-04-21T16:35:29.548Z,2.92
2019-04-21T16:40:48.981Z,2.37
2019-04-21T16:43:24.985Z,2.62
2019-04-21T16:46:01.196Z,2.93
2019-04-21T16:48:39.867Z,2.90
2019-04-21T16:51:16.408Z,2.60
2019-04-21T16:53:59.784Z,3.02
2019-04-21T16:56:47.837Z,2.93
2019-04-21T16:59:28.690Z,3.10
2019-04-21T17:07:15.751Z,9.50
2019-04-21T17:09:54.897Z,3.70
2019-04-21T17:12:30.672Z,2.75
2019-04-21T17:15:21.504Z,2.75
2019-04-21T17:18:00.491Z,2.65
2019-04-21T17:20:34.246Z,2.70
2019-04-21T17:22:57.748Z,2.50
2019-04-21T17:25:33.995Z,2.70
2019-04-21T17:28:09.848Z,3.72
2019-04-21T17:33:23.324Z,2.93
2019-04-21T17:35:56.934Z,2.93
2019-04-21T17:38:32.079Z,2.77
2019-04-21T17:41:16.598Z,3.00
2019-04-21T17:43:43.642Z,7.70
2019-04-21T17:46:33.550Z,6.43
2019-04-21T22:09:20.295Z,4.00
2019-04-21T22:11:57.830Z,3.83
2019-04-21T22:14:36.929Z,4.07
2019-04-21T22:17:24.575Z,4.40
2019-04-21T22:20:08.534Z,4.50
2019-04-21T22:22:38.949Z,5.50
2019-04-21T22:25:12.723Z,4.60
2019-04-21T22:30:29.018Z,5.40
2019-04-21T22:33:06.160Z,4.93
2019-04-21T22:35:42.594Z,4.60
2019-04-21T22:38:28.083Z,4.07
2019-04-21T22:41:06.075Z,3.90
2019-04-21T22:43:37.666Z,3.87
2019-04-21T22:46:08.201Z,4.78
2019-04-21T22:48:52.125Z,3.42
2019-04-21T22:51:30.285Z,3.57
2019-04-21T22:54:01.133Z,3.87
2019-04-21T22:59:20.252Z,3.83
2019-04-21T23:01:52.650Z,3.97
2019-04-21T23:04:35.559Z,3.90
2019-04-21T23:07:10.028Z,3.97
2019-04-21T23:12:19.403Z,3.80
2019-04-21T23:14:57.422Z,4.10
2019-04-21T23:17:48.295Z,3.25
2019-04-21T23:23:01.957Z,4.17
2019-04-21T23:25:27.887Z,3.90
2019-04-21T23:28:09.121Z,3.55
2019-04-21T23:30:50.465Z,3.50
2019-04-21T23:33:06.559Z,3.40
2019-04-21T23:35:40.595Z,3.53
2019-04-21T23:40:55.829Z,3.60
2019-04-21T23:43:26.370Z,3.70
2019-04-21T23:46:02.374Z,3.73
2019-04-21T23:48:56.062Z,3.87
2019-04-21T23:51:27.454Z,3.62
2019-04-21T23:53:53.449Z,3.60
2019-04-21T23:56:33.387Z,3.70
2019-04-21T23:59:07.480Z,3.65
